sensor_id;sensor_type;location;lat;lon;timestamp;P1;durP1;ratioP1;P2;durP2;ratioP2
40827;SDS011;26549;50.918;5.338;2024-02-28T00:01:05;40.30;;;23.08;;
40827;SDS011;26549;50.918;5.338;2024-02-28T00:03:31;36.85;;;20.67;;
40827;SDS011;26549;50.918;5.338;2024-02-28T00:05:58;39.05;;;22.20;;
40827;SDS011;26549;50.918;5.338;2024-02-28T00:08:24;37.05;;;23.63;;
40827;SDS011;26549;50.918;5.338;2024-02-28T00:10:49;36.50;;;20.38;;
40827;SDS011;26549;50.918;5.338;2024-02-28T00:13:15;38.90;;;20.73;;
40827;SDS011;26549;50.918;5.338;2024-02-28T00:15:41;40.58;;;22.77;;
40827;SDS011;26549;50.918;5.338;2024-02-28T00:18:07;42.20;;;23.38;;
40827;SDS011;26549;50.918;5.338;2024-02-28T00:20:33;39.25;;;22.48;;
40827;SDS011;26549;50.918;5.338;2024-02-28T00:22:58;43.35;;;23.42;;
40827;SDS011;26549;50.918;5.338;2024-02-28T00:25:24;39.17;;;21.45;;
40827;SDS011;26549;50.918;5.338;2024-02-28T00:27:50;41.88;;;22.65;;
40827;SDS011;26549;50.918;5.338;2024-02-28T00:30:16;40.25;;;22.67;;
40827;SDS011;26549;50.918;5.338;2024-02-28T00:32:42;37.22;;;21.73;;
40827;SDS011;26549;50.918;5.338;2024-02-28T00:35:08;39.08;;;20.92;;
40827;SDS011;26549;50.918;5.338;2024-02-28T00:37:34;38.97;;;21.15;;
40827;SDS011;26549;50.918;5.338;2024-02-28T00:39:59;41.67;;;21.83;;
40827;SDS011;26549;50.918;5.338;2024-02-28T00:42:25;44.17;;;23.35;;
40827;SDS011;26549;50.918;5.338;2024-02-28T00:44:53;40.45;;;22.15;;
40827;SDS011;26549;50.918;5.338;2024-02-28T00:47:18;41.55;;;23.02;;
40827;SDS011;26549;50.918;5.338;2024-02-28T00:49:44;40.72;;;21.42;;
40827;SDS011;26549;50.918;5.338;2024-02-28T00:52:10;38.25;;;22.10;;
40827;SDS011;26549;50.918;5.338;2024-02-28T00:54:36;41.50;;;23.23;;
40827;SDS011;26549;50.918;5.338;2024-02-28T00:57:02;42.58;;;22.85;;
40827;SDS011;26549;50.918;5.338;2024-02-28T00:59:28;47.90;;;22.65;;
40827;SDS011;26549;50.918;5.338;2024-02-28T01:01:53;39.58;;;22.77;;
40827;SDS011;26549;50.918;5.338;2024-02-28T01:04:19;45.88;;;22.83;;
40827;SDS011;26549;50.918;5.338;2024-02-28T01:06:45;39.67;;;22.55;;
40827;SDS011;26549;50.918;5.338;2024-02-28T01:09:11;40.97;;;21.98;;
40827;SDS011;26549;50.918;5.338;2024-02-28T01:11:37;40.95;;;23.13;;
40827;SDS011;26549;50.918;5.338;2024-02-28T01:14:02;39.67;;;20.42;;
40827;SDS011;26549;50.918;5.338;2024-02-28T01:16:29;43.80;;;21.85;;
40827;SDS011;26549;50.918;5.338;2024-02-28T01:18:55;45.35;;;23.75;;
40827;SDS011;26549;50.918;5.338;2024-02-28T01:21:22;41.58;;;23.90;;
40827;SDS011;26549;50.918;5.338;2024-02-28T01:23:47;41.33;;;23.40;;
40827;SDS011;26549;50.918;5.338;2024-02-28T01:26:13;41.05;;;22.52;;
40827;SDS011;26549;50.918;5.338;2024-02-28T01:28:40;37.45;;;21.55;;
40827;SDS011;26549;50.918;5.338;2024-02-28T01:31:08;42.67;;;21.88;;
40827;SDS011;26549;50.918;5.338;2024-02-28T01:33:33;40.40;;;22.58;;
40827;SDS011;26549;50.918;5.338;2024-02-28T01:35:59;39.63;;;23.00;;
40827;SDS011;26549;50.918;5.338;2024-02-28T01:38:25;44.30;;;24.23;;
40827;SDS011;26549;50.918;5.338;2024-02-28T01:40:51;42.88;;;22.45;;
40827;SDS011;26549;50.918;5.338;2024-02-28T01:43:17;44.63;;;20.90;;
40827;SDS011;26549;50.918;5.338;2024-02-28T01:45:43;43.55;;;23.55;;
40827;SDS011;26549;50.918;5.338;2024-02-28T01:48:09;42.33;;;23.45;;
40827;SDS011;26549;50.918;5.338;2024-02-28T01:50:37;44.78;;;23.05;;
40827;SDS011;26549;50.918;5.338;2024-02-28T01:53:03;43.53;;;24.60;;
40827;SDS011;26549;50.918;5.338;2024-02-28T01:55:32;40.63;;;21.27;;
40827;SDS011;26549;50.918;5.338;2024-02-28T01:57:58;42.83;;;25.00;;
40827;SDS011;26549;50.918;5.338;2024-02-28T02:00:23;39.75;;;21.83;;
40827;SDS011;26549;50.918;5.338;2024-02-28T02:02:52;45.83;;;25.40;;
40827;SDS011;26549;50.918;5.338;2024-02-28T02:05:19;44.22;;;21.85;;
40827;SDS011;26549;50.918;5.338;2024-02-28T02:07:46;41.53;;;23.42;;
40827;SDS011;26549;50.918;5.338;2024-02-28T02:10:13;39.53;;;21.98;;
40827;SDS011;26549;50.918;5.338;2024-02-28T02:12:39;40.85;;;21.23;;
40827;SDS011;26549;50.918;5.338;2024-02-28T02:15:05;40.33;;;22.05;;
40827;SDS011;26549;50.918;5.338;2024-02-28T02:17:31;43.20;;;22.42;;
40827;SDS011;26549;50.918;5.338;2024-02-28T02:19:57;36.72;;;21.58;;
40827;SDS011;26549;50.918;5.338;2024-02-28T02:22:23;36.05;;;21.13;;
40827;SDS011;26549;50.918;5.338;2024-02-28T02:24:51;37.85;;;20.45;;
40827;SDS011;26549;50.918;5.338;2024-02-28T02:27:17;42.60;;;23.40;;
40827;SDS011;26549;50.918;5.338;2024-02-28T02:29:43;39.00;;;21.38;;
40827;SDS011;26549;50.918;5.338;2024-02-28T02:32:08;40.13;;;22.20;;
40827;SDS011;26549;50.918;5.338;2024-02-28T02:34:34;44.15;;;24.17;;
40827;SDS011;26549;50.918;5.338;2024-02-28T02:37:00;38.45;;;21.00;;
40827;SDS011;26549;50.918;5.338;2024-02-28T02:39:25;35.70;;;20.10;;
40827;SDS011;26549;50.918;5.338;2024-02-28T02:41:52;42.10;;;20.83;;
40827;SDS011;26549;50.918;5.338;2024-02-28T02:44:18;41.67;;;21.90;;
40827;SDS011;26549;50.918;5.338;2024-02-28T02:46:44;36.55;;;21.05;;
40827;SDS011;26549;50.918;5.338;2024-02-28T02:49:09;34.40;;;19.58;;
40827;SDS011;26549;50.918;5.338;2024-02-28T02:51:35;37.17;;;19.33;;
40827;SDS011;26549;50.918;5.338;2024-02-28T02:54:01;37.50;;;19.80;;
40827;SDS011;26549;50.918;5.338;2024-02-28T02:56:27;35.42;;;20.73;;
40827;SDS011;26549;50.918;5.338;2024-02-28T02:58:52;37.78;;;22.25;;
40827;SDS011;26549;50.918;5.338;2024-02-28T03:01:18;42.08;;;21.70;;
40827;SDS011;26549;50.918;5.338;2024-02-28T03:03:45;36.50;;;20.75;;
40827;SDS011;26549;50.918;5.338;2024-02-28T03:06:10;39.17;;;21.17;;
40827;SDS011;26549;50.918;5.338;2024-02-28T03:08:36;38.25;;;20.65;;
40827;SDS011;26549;50.918;5.338;2024-02-28T03:11:03;38.03;;;20.52;;
40827;SDS011;26549;50.918;5.338;2024-02-28T03:13:32;38.47;;;20.83;;
40827;SDS011;26549;50.918;5.338;2024-02-28T03:15:57;39.63;;;20.10;;
40827;SDS011;26549;50.918;5.338;2024-02-28T03:18:23;36.63;;;21.00;;
40827;SDS011;26549;50.918;5.338;2024-02-28T03:20:49;36.67;;;18.77;;
40827;SDS011;26549;50.918;5.338;2024-02-28T03:23:14;35.70;;;21.15;;
40827;SDS011;26549;50.918;5.338;2024-02-28T03:25:41;35.65;;;18.02;;
40827;SDS011;26549;50.918;5.338;2024-02-28T03:28:07;40.03;;;21.48;;
40827;SDS011;26549;50.918;5.338;2024-02-28T03:30:33;36.05;;;20.05;;
40827;SDS011;26549;50.918;5.338;2024-02-28T03:32:59;34.72;;;19.05;;
40827;SDS011;26549;50.918;5.338;2024-02-28T03:35:24;33.47;;;18.77;;
40827;SDS011;26549;50.918;5.338;2024-02-28T03:37:50;31.77;;;18.92;;
40827;SDS011;26549;50.918;5.338;2024-02-28T03:40:16;38.60;;;20.60;;
40827;SDS011;26549;50.918;5.338;2024-02-28T03:42:42;39.42;;;22.17;;
40827;SDS011;26549;50.918;5.338;2024-02-28T03:45:07;38.63;;;20.83;;
40827;SDS011;26549;50.918;5.338;2024-02-28T03:47:33;39.25;;;20.25;;
40827;SDS011;26549;50.918;5.338;2024-02-28T03:49:59;36.08;;;20.33;;
40827;SDS011;26549;50.918;5.338;2024-02-28T03:52:27;41.40;;;21.08;;
40827;SDS011;26549;50.918;5.338;2024-02-28T03:54:54;34.53;;;18.85;;
40827;SDS011;26549;50.918;5.338;2024-02-28T03:57:20;41.95;;;21.55;;
40827;SDS011;26549;50.918;5.338;2024-02-28T03:59:46;38.35;;;21.38;;
40827;SDS011;26549;50.918;5.338;2024-02-28T04:02:11;38.97;;;23.52;;
40827;SDS011;26549;50.918;5.338;2024-02-28T04:04:37;43.50;;;22.20;;
40827;SDS011;26549;50.918;5.338;2024-02-28T04:07:03;38.53;;;21.23;;
40827;SDS011;26549;50.918;5.338;2024-02-28T04:09:28;39.45;;;20.92;;
40827;SDS011;26549;50.918;5.338;2024-02-28T04:11:54;39.90;;;19.75;;
40827;SDS011;26549;50.918;5.338;2024-02-28T04:14:20;44.60;;;19.15;;
40827;SDS011;26549;50.918;5.338;2024-02-28T04:16:46;32.28;;;18.77;;
40827;SDS011;26549;50.918;5.338;2024-02-28T04:19:12;39.10;;;18.20;;
40827;SDS011;26549;50.918;5.338;2024-02-28T04:21:38;29.75;;;16.48;;
40827;SDS011;26549;50.918;5.338;2024-02-28T04:24:06;35.58;;;19.40;;
40827;SDS011;26549;50.918;5.338;2024-02-28T04:26:31;27.70;;;15.45;;
40827;SDS011;26549;50.918;5.338;2024-02-28T04:28:57;28.95;;;17.15;;
40827;SDS011;26549;50.918;5.338;2024-02-28T04:31:24;31.65;;;17.15;;
40827;SDS011;26549;50.918;5.338;2024-02-28T04:33:49;28.23;;;16.15;;
40827;SDS011;26549;50.918;5.338;2024-02-28T04:36:16;30.85;;;16.60;;
40827;SDS011;26549;50.918;5.338;2024-02-28T04:38:42;24.27;;;15.48;;
40827;SDS011;26549;50.918;5.338;2024-02-28T04:41:08;27.52;;;15.95;;
40827;SDS011;26549;50.918;5.338;2024-02-28T04:43:33;24.90;;;15.27;;
40827;SDS011;26549;50.918;5.338;2024-02-28T04:46:00;25.15;;;16.45;;
40827;SDS011;26549;50.918;5.338;2024-02-28T04:48:28;24.88;;;14.82;;
40827;SDS011;26549;50.918;5.338;2024-02-28T04:50:53;27.50;;;15.85;;
40827;SDS011;26549;50.918;5.338;2024-02-28T04:53:19;28.42;;;15.85;;
40827;SDS011;26549;50.918;5.338;2024-02-28T04:55:45;23.85;;;14.38;;
40827;SDS011;26549;50.918;5.338;2024-02-28T04:58:11;20.67;;;12.48;;
40827;SDS011;26549;50.918;5.338;2024-02-28T05:00:36;24.05;;;14.95;;
40827;SDS011;26549;50.918;5.338;2024-02-28T05:03:02;23.73;;;14.07;;
40827;SDS011;26549;50.918;5.338;2024-02-28T05:05:29;20.48;;;13.75;;
40827;SDS011;26549;50.918;5.338;2024-02-28T05:07:55;23.50;;;14.20;;
40827;SDS011;26549;50.918;5.338;2024-02-28T05:10:20;21.55;;;13.10;;
40827;SDS011;26549;50.918;5.338;2024-02-28T05:12:46;22.15;;;12.77;;
40827;SDS011;26549;50.918;5.338;2024-02-28T05:15:12;23.88;;;12.85;;
40827;SDS011;26549;50.918;5.338;2024-02-28T05:17:40;26.77;;;14.23;;
40827;SDS011;26549;50.918;5.338;2024-02-28T05:20:06;25.88;;;14.30;;
40827;SDS011;26549;50.918;5.338;2024-02-28T05:22:32;24.15;;;14.30;;
40827;SDS011;26549;50.918;5.338;2024-02-28T05:24:58;32.17;;;14.85;;
40827;SDS011;26549;50.918;5.338;2024-02-28T05:27:23;23.33;;;15.20;;
40827;SDS011;26549;50.918;5.338;2024-02-28T05:29:49;24.27;;;13.73;;
40827;SDS011;26549;50.918;5.338;2024-02-28T05:32:15;22.98;;;14.80;;
40827;SDS011;26549;50.918;5.338;2024-02-28T05:34:42;25.30;;;15.90;;
40827;SDS011;26549;50.918;5.338;2024-02-28T05:37:07;21.50;;;13.88;;
40827;SDS011;26549;50.918;5.338;2024-02-28T05:39:34;19.70;;;12.38;;
40827;SDS011;26549;50.918;5.338;2024-02-28T05:42:01;22.95;;;13.13;;
40827;SDS011;26549;50.918;5.338;2024-02-28T05:44:27;23.63;;;13.32;;
40827;SDS011;26549;50.918;5.338;2024-02-28T05:46:52;21.90;;;14.57;;
40827;SDS011;26549;50.918;5.338;2024-02-28T05:49:18;21.50;;;13.00;;
40827;SDS011;26549;50.918;5.338;2024-02-28T05:51:44;20.88;;;13.75;;
40827;SDS011;26549;50.918;5.338;2024-02-28T05:54:11;19.30;;;13.35;;
40827;SDS011;26549;50.918;5.338;2024-02-28T05:56:37;21.20;;;12.63;;
40827;SDS011;26549;50.918;5.338;2024-02-28T05:59:02;17.55;;;11.93;;
40827;SDS011;26549;50.918;5.338;2024-02-28T06:01:32;23.05;;;13.52;;
40827;SDS011;26549;50.918;5.338;2024-02-28T06:03:57;20.90;;;12.00;;
40827;SDS011;26549;50.918;5.338;2024-02-28T06:06:23;21.65;;;14.15;;
40827;SDS011;26549;50.918;5.338;2024-02-28T06:08:49;23.73;;;14.27;;
40827;SDS011;26549;50.918;5.338;2024-02-28T06:11:14;21.17;;;12.93;;
40827;SDS011;26549;50.918;5.338;2024-02-28T06:13:40;19.15;;;12.25;;
40827;SDS011;26549;50.918;5.338;2024-02-28T06:16:06;21.95;;;12.55;;
40827;SDS011;26549;50.918;5.338;2024-02-28T06:18:32;22.15;;;14.07;;
40827;SDS011;26549;50.918;5.338;2024-02-28T06:20:58;21.20;;;12.80;;
40827;SDS011;26549;50.918;5.338;2024-02-28T06:23:25;24.92;;;14.45;;
40827;SDS011;26549;50.918;5.338;2024-02-28T06:25:51;21.00;;;13.75;;
40827;SDS011;26549;50.918;5.338;2024-02-28T06:28:17;20.33;;;12.30;;
40827;SDS011;26549;50.918;5.338;2024-02-28T06:30:43;19.13;;;12.70;;
40827;SDS011;26549;50.918;5.338;2024-02-28T06:33:14;23.10;;;12.93;;
40827;SDS011;26549;50.918;5.338;2024-02-28T06:35:40;19.20;;;13.05;;
40827;SDS011;26549;50.918;5.338;2024-02-28T06:38:06;22.52;;;13.25;;
40827;SDS011;26549;50.918;5.338;2024-02-28T06:40:32;20.08;;;12.07;;
40827;SDS011;26549;50.918;5.338;2024-02-28T06:43:00;20.58;;;13.65;;
40827;SDS011;26549;50.918;5.338;2024-02-28T06:45:28;23.13;;;13.50;;
40827;SDS011;26549;50.918;5.338;2024-02-28T06:47:54;20.27;;;12.70;;
40827;SDS011;26549;50.918;5.338;2024-02-28T06:50:20;22.23;;;14.23;;
40827;SDS011;26549;50.918;5.338;2024-02-28T06:52:46;20.73;;;13.48;;
40827;SDS011;26549;50.918;5.338;2024-02-28T06:55:12;19.58;;;13.10;;
40827;SDS011;26549;50.918;5.338;2024-02-28T06:57:42;20.17;;;13.98;;
40827;SDS011;26549;50.918;5.338;2024-02-28T07:00:09;18.13;;;11.68;;
40827;SDS011;26549;50.918;5.338;2024-02-28T07:02:40;20.15;;;12.82;;
40827;SDS011;26549;50.918;5.338;2024-02-28T07:05:05;23.80;;;15.00;;
40827;SDS011;26549;50.918;5.338;2024-02-28T07:07:32;23.40;;;14.98;;
40827;SDS011;26549;50.918;5.338;2024-02-28T07:09:58;20.88;;;13.25;;
40827;SDS011;26549;50.918;5.338;2024-02-28T07:12:24;30.63;;;14.98;;
40827;SDS011;26549;50.918;5.338;2024-02-28T07:14:50;25.13;;;14.40;;
40827;SDS011;26549;50.918;5.338;2024-02-28T07:17:16;25.02;;;15.38;;
40827;SDS011;26549;50.918;5.338;2024-02-28T07:19:42;23.20;;;14.25;;
40827;SDS011;26549;50.918;5.338;2024-02-28T07:22:08;27.58;;;14.50;;
40827;SDS011;26549;50.918;5.338;2024-02-28T07:24:33;24.20;;;13.68;;
40827;SDS011;26549;50.918;5.338;2024-02-28T07:26:59;23.27;;;13.13;;
40827;SDS011;26549;50.918;5.338;2024-02-28T07:29:25;20.77;;;13.80;;
40827;SDS011;26549;50.918;5.338;2024-02-28T07:31:50;24.55;;;14.98;;
40827;SDS011;26549;50.918;5.338;2024-02-28T07:34:16;21.92;;;13.20;;
40827;SDS011;26549;50.918;5.338;2024-02-28T07:36:42;23.70;;;13.43;;
40827;SDS011;26549;50.918;5.338;2024-02-28T07:39:09;23.58;;;14.73;;
40827;SDS011;26549;50.918;5.338;2024-02-28T07:41:38;22.73;;;13.90;;
40827;SDS011;26549;50.918;5.338;2024-02-28T07:44:04;22.65;;;13.05;;
40827;SDS011;26549;50.918;5.338;2024-02-28T07:46:32;27.08;;;14.25;;
40827;SDS011;26549;50.918;5.338;2024-02-28T07:48:58;25.77;;;12.05;;
40827;SDS011;26549;50.918;5.338;2024-02-28T07:51:23;25.35;;;12.65;;
40827;SDS011;26549;50.918;5.338;2024-02-28T07:53:49;24.05;;;13.27;;
40827;SDS011;26549;50.918;5.338;2024-02-28T07:56:15;25.95;;;12.68;;
40827;SDS011;26549;50.918;5.338;2024-02-28T07:58:42;25.10;;;13.82;;
40827;SDS011;26549;50.918;5.338;2024-02-28T08:01:08;22.52;;;12.07;;
40827;SDS011;26549;50.918;5.338;2024-02-28T08:03:34;28.13;;;14.77;;
40827;SDS011;26549;50.918;5.338;2024-02-28T08:06:00;27.83;;;14.52;;
40827;SDS011;26549;50.918;5.338;2024-02-28T08:08:26;26.08;;;13.15;;
40827;SDS011;26549;50.918;5.338;2024-02-28T08:10:51;27.13;;;13.18;;
40827;SDS011;26549;50.918;5.338;2024-02-28T08:13:18;29.95;;;12.45;;
40827;SDS011;26549;50.918;5.338;2024-02-28T08:15:44;27.23;;;11.05;;
40827;SDS011;26549;50.918;5.338;2024-02-28T08:18:10;28.45;;;12.68;;
40827;SDS011;26549;50.918;5.338;2024-02-28T08:20:36;27.05;;;11.40;;
40827;SDS011;26549;50.918;5.338;2024-02-28T08:23:03;24.02;;;12.57;;
40827;SDS011;26549;50.918;5.338;2024-02-28T08:25:30;31.88;;;13.00;;
40827;SDS011;26549;50.918;5.338;2024-02-28T08:27:55;31.98;;;13.60;;
40827;SDS011;26549;50.918;5.338;2024-02-28T08:30:21;25.98;;;12.60;;
40827;SDS011;26549;50.918;5.338;2024-02-28T08:32:47;29.10;;;13.20;;
40827;SDS011;26549;50.918;5.338;2024-02-28T08:35:14;27.63;;;12.05;;
40827;SDS011;26549;50.918;5.338;2024-02-28T08:37:41;27.08;;;13.43;;
40827;SDS011;26549;50.918;5.338;2024-02-28T08:40:07;24.98;;;12.48;;
40827;SDS011;26549;50.918;5.338;2024-02-28T08:42:33;27.20;;;13.10;;
40827;SDS011;26549;50.918;5.338;2024-02-28T08:45:00;27.52;;;12.88;;
40827;SDS011;26549;50.918;5.338;2024-02-28T08:47:28;25.02;;;12.30;;
40827;SDS011;26549;50.918;5.338;2024-02-28T08:49:54;31.10;;;12.98;;
40827;SDS011;26549;50.918;5.338;2024-02-28T08:52:21;29.08;;;13.93;;
40827;SDS011;26549;50.918;5.338;2024-02-28T08:54:47;28.23;;;13.38;;
40827;SDS011;26549;50.918;5.338;2024-02-28T08:57:14;32.35;;;15.20;;
40827;SDS011;26549;50.918;5.338;2024-02-28T08:59:41;24.50;;;13.10;;
40827;SDS011;26549;50.918;5.338;2024-02-28T09:02:07;27.83;;;14.95;;
40827;SDS011;26549;50.918;5.338;2024-02-28T09:04:33;25.65;;;12.00;;
40827;SDS011;26549;50.918;5.338;2024-02-28T09:06:59;26.00;;;11.70;;
40827;SDS011;26549;50.918;5.338;2024-02-28T09:09:24;24.17;;;11.38;;
40827;SDS011;26549;50.918;5.338;2024-02-28T09:11:53;24.83;;;12.25;;
40827;SDS011;26549;50.918;5.338;2024-02-28T09:14:18;25.92;;;12.82;;
40827;SDS011;26549;50.918;5.338;2024-02-28T09:16:44;24.40;;;12.02;;
40827;SDS011;26549;50.918;5.338;2024-02-28T09:19:10;22.60;;;10.07;;
40827;SDS011;26549;50.918;5.338;2024-02-28T09:21:35;28.63;;;11.93;;
40827;SDS011;26549;50.918;5.338;2024-02-28T09:24:01;23.33;;;10.68;;
40827;SDS011;26549;50.918;5.338;2024-02-28T09:26:27;21.73;;;11.15;;
40827;SDS011;26549;50.918;5.338;2024-02-28T09:28:53;27.17;;;11.85;;
40827;SDS011;26549;50.918;5.338;2024-02-28T09:31:18;20.88;;;11.35;;
40827;SDS011;26549;50.918;5.338;2024-02-28T09:33:44;20.60;;;9.57;;
40827;SDS011;26549;50.918;5.338;2024-02-28T09:36:11;18.85;;;9.60;;
40827;SDS011;26549;50.918;5.338;2024-02-28T09:38:38;19.38;;;10.57;;
40827;SDS011;26549;50.918;5.338;2024-02-28T09:41:06;22.90;;;11.38;;
40827;SDS011;26549;50.918;5.338;2024-02-28T09:43:32;22.13;;;10.63;;
40827;SDS011;26549;50.918;5.338;2024-02-28T09:46:05;23.20;;;10.35;;
40827;SDS011;26549;50.918;5.338;2024-02-28T09:48:35;19.58;;;11.38;;
40827;SDS011;26549;50.918;5.338;2024-02-28T09:51:03;25.20;;;11.27;;
40827;SDS011;26549;50.918;5.338;2024-02-28T09:53:29;25.33;;;12.75;;
40827;SDS011;26549;50.918;5.338;2024-02-28T09:55:55;24.10;;;12.40;;
40827;SDS011;26549;50.918;5.338;2024-02-28T09:58:21;26.88;;;12.40;;
40827;SDS011;26549;50.918;5.338;2024-02-28T10:00:48;23.80;;;11.05;;
40827;SDS011;26549;50.918;5.338;2024-02-28T10:03:16;23.33;;;11.35;;
40827;SDS011;26549;50.918;5.338;2024-02-28T10:05:46;29.17;;;11.85;;
40827;SDS011;26549;50.918;5.338;2024-02-28T10:08:12;25.25;;;11.60;;
40827;SDS011;26549;50.918;5.338;2024-02-28T10:10:44;26.35;;;11.73;;
40827;SDS011;26549;50.918;5.338;2024-02-28T10:13:15;23.25;;;11.57;;
40827;SDS011;26549;50.918;5.338;2024-02-28T10:15:41;23.02;;;11.65;;
40827;SDS011;26549;50.918;5.338;2024-02-28T10:18:07;25.35;;;11.48;;
40827;SDS011;26549;50.918;5.338;2024-02-28T10:20:33;24.17;;;12.20;;
40827;SDS011;26549;50.918;5.338;2024-02-28T10:22:59;23.13;;;11.02;;
40827;SDS011;26549;50.918;5.338;2024-02-28T10:25:29;27.15;;;12.63;;
40827;SDS011;26549;50.918;5.338;2024-02-28T10:27:59;19.17;;;9.90;;
40827;SDS011;26549;50.918;5.338;2024-02-28T10:30:25;19.83;;;9.57;;
40827;SDS011;26549;50.918;5.338;2024-02-28T10:32:51;29.85;;;12.50;;
40827;SDS011;26549;50.918;5.338;2024-02-28T10:35:17;19.83;;;10.23;;
40827;SDS011;26549;50.918;5.338;2024-02-28T10:37:50;22.45;;;9.98;;
40827;SDS011;26549;50.918;5.338;2024-02-28T10:40:17;20.73;;;9.98;;
40827;SDS011;26549;50.918;5.338;2024-02-28T10:42:42;20.45;;;10.57;;
40827;SDS011;26549;50.918;5.338;2024-02-28T10:45:12;20.35;;;10.55;;
40827;SDS011;26549;50.918;5.338;2024-02-28T10:47:38;18.10;;;10.43;;
40827;SDS011;26549;50.918;5.338;2024-02-28T10:50:04;20.50;;;11.38;;
40827;SDS011;26549;50.918;5.338;2024-02-28T10:52:32;23.42;;;10.32;;
40827;SDS011;26549;50.918;5.338;2024-02-28T10:55:01;22.10;;;9.70;;
40827;SDS011;26549;50.918;5.338;2024-02-28T10:57:27;19.98;;;10.40;;
40827;SDS011;26549;50.918;5.338;2024-02-28T10:59:56;18.23;;;9.95;;
40827;SDS011;26549;50.918;5.338;2024-02-28T11:02:23;19.63;;;9.85;;
40827;SDS011;26549;50.918;5.338;2024-02-28T11:04:51;22.52;;;10.55;;
40827;SDS011;26549;50.918;5.338;2024-02-28T11:07:21;21.17;;;10.30;;
40827;SDS011;26549;50.918;5.338;2024-02-28T11:09:47;18.75;;;10.02;;
40827;SDS011;26549;50.918;5.338;2024-02-28T11:12:28;22.70;;;9.50;;
40827;SDS011;26549;50.918;5.338;2024-02-28T11:15:02;27.48;;;10.60;;
40827;SDS011;26549;50.918;5.338;2024-02-28T11:17:31;23.98;;;9.43;;
40827;SDS011;26549;50.918;5.338;2024-02-28T11:19:58;23.40;;;9.57;;
40827;SDS011;26549;50.918;5.338;2024-02-28T11:22:30;20.23;;;9.13;;
40827;SDS011;26549;50.918;5.338;2024-02-28T11:25:09;16.20;;;8.55;;
40827;SDS011;26549;50.918;5.338;2024-02-28T11:27:57;18.65;;;9.43;;
40827;SDS011;26549;50.918;5.338;2024-02-28T11:30:21;15.63;;;8.93;;
40827;SDS011;26549;50.918;5.338;2024-02-28T11:32:48;16.98;;;8.68;;
40827;SDS011;26549;50.918;5.338;2024-02-28T11:35:14;16.20;;;9.18;;
40827;SDS011;26549;50.918;5.338;2024-02-28T11:37:44;18.90;;;9.05;;
40827;SDS011;26549;50.918;5.338;2024-02-28T11:40:12;20.92;;;8.05;;
40827;SDS011;26549;50.918;5.338;2024-02-28T11:42:39;18.80;;;7.57;;
40827;SDS011;26549;50.918;5.338;2024-02-28T11:45:05;14.70;;;7.45;;
40827;SDS011;26549;50.918;5.338;2024-02-28T11:47:35;12.00;;;7.45;;
40827;SDS011;26549;50.918;5.338;2024-02-28T11:50:02;12.75;;;7.13;;
40827;SDS011;26549;50.918;5.338;2024-02-28T11:52:33;14.27;;;7.63;;
40827;SDS011;26549;50.918;5.338;2024-02-28T11:54:59;14.27;;;7.38;;
40827;SDS011;26549;50.918;5.338;2024-02-28T11:57:25;12.45;;;5.88;;
40827;SDS011;26549;50.918;5.338;2024-02-28T11:59:52;17.13;;;7.38;;
40827;SDS011;26549;50.918;5.338;2024-02-28T12:02:18;11.05;;;7.07;;
40827;SDS011;26549;50.918;5.338;2024-02-28T12:04:46;14.10;;;7.10;;
40827;SDS011;26549;50.918;5.338;2024-02-28T12:07:15;11.68;;;6.80;;
40827;SDS011;26549;50.918;5.338;2024-02-28T12:09:40;12.38;;;6.55;;
40827;SDS011;26549;50.918;5.338;2024-02-28T12:12:06;13.00;;;6.55;;
40827;SDS011;26549;50.918;5.338;2024-02-28T12:14:37;15.32;;;8.80;;
40827;SDS011;26549;50.918;5.338;2024-02-28T12:17:10;11.75;;;6.00;;
40827;SDS011;26549;50.918;5.338;2024-02-28T12:19:36;11.77;;;5.95;;
40827;SDS011;26549;50.918;5.338;2024-02-28T12:22:05;12.25;;;6.82;;
40827;SDS011;26549;50.918;5.338;2024-02-28T12:24:32;12.98;;;6.90;;
40827;SDS011;26549;50.918;5.338;2024-02-28T12:26:58;15.20;;;8.25;;
40827;SDS011;26549;50.918;5.338;2024-02-28T12:29:24;9.82;;;5.50;;
40827;SDS011;26549;50.918;5.338;2024-02-28T12:31:50;13.70;;;6.35;;
40827;SDS011;26549;50.918;5.338;2024-02-28T12:34:15;9.48;;;4.80;;
40827;SDS011;26549;50.918;5.338;2024-02-28T12:36:41;12.75;;;6.68;;
40827;SDS011;26549;50.918;5.338;2024-02-28T12:39:07;10.50;;;5.55;;
40827;SDS011;26549;50.918;5.338;2024-02-28T12:41:37;8.55;;;4.75;;
40827;SDS011;26549;50.918;5.338;2024-02-28T12:44:04;8.05;;;4.72;;
40827;SDS011;26549;50.918;5.338;2024-02-28T12:46:31;4.68;;;2.80;;
40827;SDS011;26549;50.918;5.338;2024-02-28T12:48:57;7.95;;;3.20;;
40827;SDS011;26549;50.918;5.338;2024-02-28T12:54:21;5.65;;;2.83;;
40827;SDS011;26549;50.918;5.338;2024-02-28T12:56:47;4.45;;;2.22;;
40827;SDS011;26549;50.918;5.338;2024-02-28T12:59:13;3.78;;;2.20;;
40827;SDS011;26549;50.918;5.338;2024-02-28T13:01:39;5.22;;;2.78;;
40827;SDS011;26549;50.918;5.338;2024-02-28T13:04:05;5.43;;;2.42;;
40827;SDS011;26549;50.918;5.338;2024-02-28T13:06:31;3.88;;;2.45;;
40827;SDS011;26549;50.918;5.338;2024-02-28T13:08:56;3.80;;;2.20;;
40827;SDS011;26549;50.918;5.338;2024-02-28T13:11:23;3.70;;;2.45;;
40827;SDS011;26549;50.918;5.338;2024-02-28T13:13:50;5.07;;;2.38;;
40827;SDS011;26549;50.918;5.338;2024-02-28T13:16:17;4.53;;;2.60;;
40827;SDS011;26549;50.918;5.338;2024-02-28T13:18:44;2.78;;;1.45;;
40827;SDS011;26549;50.918;5.338;2024-02-28T13:21:11;2.22;;;1.52;;
40827;SDS011;26549;50.918;5.338;2024-02-28T13:23:37;2.22;;;1.38;;
40827;SDS011;26549;50.918;5.338;2024-02-28T13:26:03;2.85;;;1.67;;
40827;SDS011;26549;50.918;5.338;2024-02-28T13:28:30;2.60;;;1.48;;
40827;SDS011;26549;50.918;5.338;2024-02-28T13:30:57;2.63;;;1.73;;
40827;SDS011;26549;50.918;5.338;2024-02-28T13:33:23;1.73;;;1.15;;
40827;SDS011;26549;50.918;5.338;2024-02-28T13:35:48;3.70;;;1.92;;
40827;SDS011;26549;50.918;5.338;2024-02-28T13:38:14;4.40;;;1.42;;
40827;SDS011;26549;50.918;5.338;2024-02-28T13:40:40;3.70;;;1.40;;
40827;SDS011;26549;50.918;5.338;2024-02-28T13:43:06;2.75;;;1.45;;
40827;SDS011;26549;50.918;5.338;2024-02-28T13:45:32;1.20;;;1.10;;
40827;SDS011;26549;50.918;5.338;2024-02-28T13:47:58;2.50;;;1.58;;
40827;SDS011;26549;50.918;5.338;2024-02-28T13:50:24;3.33;;;1.70;;
40827;SDS011;26549;50.918;5.338;2024-02-28T13:52:57;2.03;;;1.65;;
40827;SDS011;26549;50.918;5.338;2024-02-28T13:55:23;2.20;;;1.17;;
40827;SDS011;26549;50.918;5.338;2024-02-28T13:57:49;2.80;;;1.20;;
40827;SDS011;26549;50.918;5.338;2024-02-28T14:00:14;2.63;;;1.70;;
40827;SDS011;26549;50.918;5.338;2024-02-28T14:02:40;3.20;;;1.50;;
40827;SDS011;26549;50.918;5.338;2024-02-28T14:05:07;1.52;;;1.30;;
40827;SDS011;26549;50.918;5.338;2024-02-28T14:07:33;2.88;;;1.23;;
40827;SDS011;26549;50.918;5.338;2024-02-28T14:10:02;3.20;;;1.60;;
40827;SDS011;26549;50.918;5.338;2024-02-28T14:12:29;2.22;;;1.50;;
40827;SDS011;26549;50.918;5.338;2024-02-28T14:14:56;2.35;;;1.60;;
40827;SDS011;26549;50.918;5.338;2024-02-28T14:17:22;1.10;;;1.00;;
40827;SDS011;26549;50.918;5.338;2024-02-28T14:19:49;1.23;;;0.95;;
40827;SDS011;26549;50.918;5.338;2024-02-28T14:22:17;1.67;;;1.27;;
40827;SDS011;26549;50.918;5.338;2024-02-28T14:24:42;2.03;;;1.15;;